Brokaw, WI

8:11 PM CDT on August 01, 2014 (GMT -0500)
6 White Pillars (KWIWAUSA10) Elev 1381 ft | 45.00 °N, 89.60 °W | Change Station

Current weather conditions updated 1 minute ago

Clear
Clear
68.5 °F
Feels Like 68.5 °F
N
1.0
Wind Variable Wind from WSW
Gusts 1.0 mph

Tomorrow is forecast to be nearly the same temperature as today. Slight chance of a thunderstorm tomorrow night.

Today
High -- | Low -- °F
--% Chance of Precip.
Yesterday
High -- | Low -- °F
Precip. -- in
5:43 AM 8:25 PM
Waxing Crescent, 31% visible
Pressure 30.09 in
Visibility 8.0 miles
Clouds Clear
Dew Point 62 °F
Humidity 79%
Rainfall 0.00 in
Snow Depth Not available.
UV 0 out of 12
Pollen 7.20 out of 12
Air Quality Not available.
Flu Activity Not available.
METAR KAUW 020054Z AUTO VRB03KT 8SM CLR 21/16 A3008 RMK AO2 SLP188 T02060156

More Conditions Fewer Conditions

Pressure 30.09 in
Visibility 8.0 miles
Clouds Clear
Dew Point 62 °F
Humidity 79%
Rainfall 0.00 in
Snow Depth Not available.
UV 0 out of 12
Pollen 7.20 out of 12
Air Quality Not available.
Flu Activity Not available.
METAR KAUW 020054Z AUTO VRB03KT 8SM CLR 21/16 A3008 RMK AO2 SLP188 T02060156

More Conditions Fewer Conditions

10-Day Weather Forecast

Almanac

Astronomy

Aug. 01, 2014 Rise Set
Actual Time 5:43 AM CDT 8:25 PM CDT
Civil Twilight 5:10 AM CDT 8:58 PM CDT
Nautical Twilight 4:27 AM CDT 9:41 PM CDT
Astronomical Twilight 3:38 AM CDT 10:30 PM CDT
Moon 11:24 AM CDT (8/1) 10:51 PM CDT (8/1)
Length of Visible Light 15h 48m
Length of Day
14h 41m
Tomorrow will be 2m 25s shorter.
Waxing Crescent, 31% of the Moon is Illuminated
Today
Waxing Crescent
Aug 3
First Quarter
Aug 10
Full
Aug 17
Last Quarter
Aug 25
New

Today's Extremes

State Highs State Lows

Community

WunderPhotos

Upload Photos

1,739,784 photos uploaded!

Nearby

Snow Depth

Station Depth Elevation
No new snow has been reported.

Earthquake Activity

City Distance Mag. Time & Date
No recent earthquake activity has been reported nearby.
Minimum magnitude displayed is 2.5.

Coastal Water Temperatures

Place Temperature
No Stations Reporting

Nearby Weather Stations

Station Location Temp. Heat Index Dew Point Humidity Wind Precip. Elev Updated Type
6 White Pillars, Wausau, WI 68.5 °F - 62 °F 79% WSW  at  1.0 mph 0.00 in / hr 1381 ft 8:10 PM CDT Normal
Hawthorn Hills Elementary School, Wausau, WI 67.9 °F - 62 °F 82% South  at  0.0 mph 0.00 in / hr 1201 ft 8:11 PM CDT Rapid Fire
Knopf's House, Weston, WI 71.1 °F 75 °F 59 °F 66% ENE  at  1.7 mph - / hr 1214 ft 8:02 PM CDT Normal
Rib Falls Repair, Athens, WI 66.8 °F - 62 °F 84% SW  at  1.0 mph 0.00 in / hr 1348 ft 8:11 PM CDT Normal
Stefonek's Irma on Winkelman, Irma, WI 70.0 °F - 65 °F 85% NE  at  1.7 mph - / hr 1490 ft 8:06 PM CDT Normal

Show More Stations Show Fewer Stations